Time;durP1;ratioP1;P1;durP2;ratioP2;P2;SDS_P1;SDS_P2;PMS_P1;PMS_P2;Temp;Humidity;BMP_temperature;BMP_pressure;BME280_temperature;BME280_humidity;BME280_pressure;Samples;Min_cycle;Max_cycle;Signal;HPM_P1;HPM_P2
2022/10/17 00:00:43;;;;;;;5.40;5.20;;;;;;;;;;5018865;28;20037;-69
2022/10/17 00:03:09;;;;;;;5.50;5.30;;;;;;;;;;5018421;28;20091;-70
2022/10/17 00:05:42;;;;;;;5.53;5.22;;;;;;;;;;5025626;28;20072;-70
2022/10/17 00:08:09;;;;;;;5.50;5.30;;;;;;;;;;5022204;28;20037;-69
2022/10/17 00:10:35;;;;;;;5.75;5.47;;;;;;;;;;5023951;28;20051;-70
2022/10/17 00:13:01;;;;;;;5.57;5.35;;;;;;;;;;5029350;28;20034;-69
2022/10/17 00:15:27;;;;;;;5.50;5.30;;;;;;;;;;5029933;28;20029;-70
2022/10/17 00:17:52;;;;;;;5.80;5.50;;;;;;;;;;5020979;28;20025;-69
2022/10/17 00:20:18;;;;;;;5.63;5.40;;;;;;;;;;5024981;28;20033;-70
2022/10/17 00:22:44;;;;;;;5.63;5.38;;;;;;;;;;5023046;28;20033;-70
2022/10/17 00:25:10;;;;;;;5.80;5.50;;;;;;;;;;5023952;28;20037;-69
2022/10/17 00:27:38;;;;;;;5.47;5.28;;;;;;;;;;5025980;28;20672;-69
2022/10/17 00:30:05;;;;;;;5.88;5.57;;;;;;;;;;5028276;28;20098;-69
2022/10/17 00:32:31;;;;;;;5.65;5.43;;;;;;;;;;5025260;28;20044;-69
2022/10/17 00:34:57;;;;;;;5.60;5.40;;;;;;;;;;5025207;28;20034;-70
2022/10/17 00:37:24;;;;;;;5.50;5.30;;;;;;;;;;5018848;28;20037;-69
2022/10/17 00:39:49;;;;;;;5.50;5.30;;;;;;;;;;5027920;28;20044;-70
2022/10/17 00:42:16;;;;;;;5.40;5.20;;;;;;;;;;5024842;28;20037;-69
2022/10/17 00:44:42;;;;;;;5.40;5.20;;;;;;;;;;5029514;28;20071;-69
2022/10/17 00:47:12;;;;;;;5.22;5.03;;;;;;;;;;5030964;28;20765;-69
2022/10/17 00:49:38;;;;;;;5.50;5.20;;;;;;;;;;5027796;28;20038;-69
2022/10/17 00:52:08;;;;;;;5.30;5.10;;;;;;;;;;5025117;28;20044;-69
2022/10/17 00:54:38;;;;;;;5.90;5.60;;;;;;;;;;5029813;28;20041;-70
2022/10/17 00:57:03;;;;;;;5.70;5.40;;;;;;;;;;5025527;28;20538;-70
2022/10/17 00:59:32;;;;;;;5.80;5.50;;;;;;;;;;5025283;28;20162;-70
2022/10/17 01:02:10;;;;;;;5.40;5.20;;;;;;;;;;5032600;28;20064;-70
2022/10/17 01:04:42;;;;;;;5.63;5.40;;;;;;;;;;5021100;28;20041;-69
2022/10/17 01:07:08;;;;;;;5.70;5.40;;;;;;;;;;5020858;28;20038;-70
2022/10/17 01:09:35;;;;;;;5.80;5.50;;;;;;;;;;5018810;28;20088;-70
2022/10/17 01:12:07;;;;;;;5.57;5.38;;;;;;;;;;5023222;28;20099;-70
2022/10/17 01:14:51;;;;;;;5.40;5.20;;;;;;;;;;5023264;28;20051;-69
2022/10/17 01:17:29;;;;;;;5.43;5.22;;;;;;;;;;5024131;28;20061;-69
2022/10/17 01:20:32;;;;;;;6.10;5.70;;;;;;;;;;5022836;28;20049;-70
2022/10/17 01:23:23;;;;;;;5.50;5.30;;;;;;;;;;5009341;28;20050;-70
2022/10/17 01:26:04;;;;;;;5.75;5.45;;;;;;;;;;5022917;28;20428;-70
2022/10/17 01:28:48;;;;;;;5.70;5.40;;;;;;;;;;5026446;28;20386;-70
2022/10/17 01:31:36;;;;;;;5.63;5.40;;;;;;;;;;5024143;28;20135;-70
2022/10/17 01:34:12;;;;;;;5.65;5.40;;;;;;;;;;5022050;28;20033;-70
2022/10/17 01:37:03;;;;;;;5.90;5.60;;;;;;;;;;5029739;28;20049;-70
2022/10/17 01:39:47;;;;;;;5.80;5.50;;;;;;;;;;5022899;28;20513;-70
2022/10/17 01:42:20;;;;;;;5.45;5.25;;;;;;;;;;5016947;28;20034;-70
2022/10/17 01:45:02;;;;;;;5.78;5.47;;;;;;;;;;5026083;28;20030;-69
2022/10/17 01:47:32;;;;;;;5.90;5.60;;;;;;;;;;5021493;28;20592;-70
2022/10/17 01:50:06;;;;;;;6.00;5.70;;;;;;;;;;5021967;28;20056;-70
2022/10/17 01:52:40;;;;;;;5.90;5.60;;;;;;;;;;5028100;28;20120;-70
2022/10/17 01:55:18;;;;;;;6.03;5.72;;;;;;;;;;5009055;28;20052;-70
2022/10/17 01:57:48;;;;;;;5.88;5.57;;;;;;;;;;5022335;28;20449;-70
2022/10/17 02:00:19;;;;;;;5.80;5.50;;;;;;;;;;5011826;28;20060;-70
2022/10/17 02:02:54;;;;;;;5.90;5.60;;;;;;;;;;5026909;28;20092;-70
2022/10/17 02:05:25;;;;;;;5.68;5.43;;;;;;;;;;5018871;28;20037;-70
2022/10/17 02:07:50;;;;;;;5.90;5.60;;;;;;;;;;5018130;28;20161;-70
2022/10/17 02:10:28;;;;;;;5.80;5.50;;;;;;;;;;5023833;28;20459;-70
2022/10/17 02:13:04;;;;;;;5.40;5.20;;;;;;;;;;5023808;28;20448;-70
2022/10/17 02:15:53;;;;;;;5.53;5.32;;;;;;;;;;5017241;28;20037;-70
2022/10/17 02:18:37;;;;;;;5.57;5.28;;;;;;;;;;5018046;28;20072;-70
2022/10/17 02:21:13;;;;;;;5.50;5.30;;;;;;;;;;5020917;28;20033;-70
2022/10/17 02:23:51;;;;;;;5.55;5.35;;;;;;;;;;5018293;28;20062;-70
2022/10/17 02:26:25;;;;;;;5.80;5.50;;;;;;;;;;5015613;28;20116;-70
2022/10/17 02:29:09;;;;;;;5.68;5.40;;;;;;;;;;5023734;28;20116;-70
2022/10/17 02:31:57;;;;;;;5.90;5.60;;;;;;;;;;5015521;28;20037;-70
2022/10/17 02:34:28;;;;;;;5.80;5.50;;;;;;;;;;5040861;28;20037;-70
2022/10/17 02:36:58;;;;;;;5.80;5.53;;;;;;;;;;5020660;28;20033;-70
2022/10/17 02:39:27;;;;;;;5.90;5.60;;;;;;;;;;5014832;28;20041;-69
2022/10/17 02:41:58;;;;;;;5.80;5.50;;;;;;;;;;5039735;28;20042;-70
2022/10/17 02:44:25;;;;;;;;;;;;;;;;;;5023897;28;20053;-70
2022/10/17 02:47:00;;;;;;;5.70;5.40;;;;;;;;;;5040579;28;20339;-70
2022/10/17 02:49:37;;;;;;;5.55;5.35;;;;;;;;;;5041321;28;20036;-71
2022/10/17 02:52:26;;;;;;;5.90;5.60;;;;;;;;;;5020761;28;20088;-71
2022/10/17 02:55:18;;;;;;;5.82;5.53;;;;;;;;;;5023710;28;20061;-69
2022/10/17 02:58:00;;;;;;;5.82;5.53;;;;;;;;;;5020907;28;20038;-70
2022/10/17 03:00:26;;;;;;;;;;;;;;;;;;5019568;28;20041;-71
2022/10/17 03:02:53;;;;;;;5.80;5.50;;;;;;;;;;5018924;28;20446;-70
2022/10/17 03:05:27;;;;;;;6.32;6.00;;;;;;;;;;5022567;28;20065;-71
2022/10/17 03:07:53;;;;;;;5.97;5.68;;;;;;;;;;5019544;28;20037;-70
2022/10/17 03:10:44;;;;;;;6.10;5.80;;;;;;;;;;5018750;28;20080;-70
2022/10/17 03:13:10;;;;;;;6.20;5.90;;;;;;;;;;5016600;28;20470;-69
2022/10/17 03:15:39;;;;;;;6.00;5.70;;;;;;;;;;5020445;28;20033;-71
2022/10/17 03:18:04;;;;;;;6.10;5.80;;;;;;;;;;5024736;28;20052;-69
2022/10/17 03:20:30;;;;;;;6.18;5.88;;;;;;;;;;5018382;28;20056;-70
2022/10/17 03:22:55;;;;;;;5.90;5.60;;;;;;;;;;5022923;28;20117;-69
2022/10/17 03:25:21;;;;;;;5.82;5.53;;;;;;;;;;5020612;28;20034;-71
2022/10/17 03:27:48;;;;;;;6.50;6.20;;;;;;;;;;5023348;28;20037;-69
2022/10/17 03:30:14;;;;;;;5.90;5.60;;;;;;;;;;5024771;28;20091;-70
2022/10/17 03:32:39;;;;;;;5.85;5.55;;;;;;;;;;5033993;28;20030;-70
2022/10/17 03:35:05;;;;;;;6.20;5.90;;;;;;;;;;5025327;28;20049;-71
2022/10/17 03:37:31;;;;;;;6.40;6.10;;;;;;;;;;5024605;28;20038;-69
2022/10/17 03:39:57;;;;;;;6.10;5.80;;;;;;;;;;5019151;28;20086;-70
2022/10/17 03:42:24;;;;;;;6.13;5.82;;;;;;;;;;5020306;28;20065;-70
2022/10/17 03:44:49;;;;;;;6.35;6.05;;;;;;;;;;5018577;28;20401;-71
2022/10/17 03:47:15;;;;;;;6.00;5.70;;;;;;;;;;5020457;28;20091;-70
2022/10/17 03:49:42;;;;;;;6.15;5.85;;;;;;;;;;5018477;28;20410;-69
2022/10/17 03:52:13;;;;;;;6.20;5.90;;;;;;;;;;5021231;28;20030;-70
2022/10/17 03:54:39;;;;;;;6.30;6.00;;;;;;;;;;5023654;28;20045;-70
2022/10/17 03:57:05;;;;;;;6.20;5.90;;;;;;;;;;5022340;28;20044;-70
2022/10/17 03:59:31;;;;;;;5.88;5.57;;;;;;;;;;5021481;28;20042;-70
2022/10/17 04:02:02;;;;;;;5.90;5.60;;;;;;;;;;5019408;28;20045;-70
2022/10/17 04:04:28;;;;;;;6.10;5.80;;;;;;;;;;5019696;28;20382;-69
2022/10/17 04:06:54;;;;;;;6.22;5.93;;;;;;;;;;5018358;28;20172;-70
2022/10/17 04:09:19;;;;;;;6.10;5.80;;;;;;;;;;5021139;28;20041;-70
2022/10/17 04:11:52;;;;;;;6.00;5.70;;;;;;;;;;5015776;28;20294;-72
2022/10/17 04:14:18;;;;;;;5.88;5.57;;;;;;;;;;5016216;28;20355;-72
2022/10/17 04:16:44;;;;;;;6.22;5.93;;;;;;;;;;5018675;28;20508;-72
2022/10/17 04:19:17;;;;;;;6.18;5.88;;;;;;;;;;5019910;28;20112;-69
2022/10/17 04:21:45;;;;;;;6.05;5.75;;;;;;;;;;5020860;28;20049;-69
2022/10/17 04:24:12;;;;;;;6.00;5.70;;;;;;;;;;5019304;28;20030;-72
2022/10/17 04:26:56;;;;;;;6.25;5.95;;;;;;;;;;5020256;28;20043;-70
2022/10/17 04:29:25;;;;;;;6.45;6.10;;;;;;;;;;5019213;28;20081;-72
2022/10/17 04:31:56;;;;;;;6.35;6.05;;;;;;;;;;5018463;28;20025;-72
2022/10/17 04:34:33;;;;;;;6.20;5.90;;;;;;;;;;5014237;28;20049;-72
2022/10/17 04:36:59;;;;;;;6.35;6.05;;;;;;;;;;5016785;28;20093;-73
2022/10/17 04:39:25;;;;;;;6.00;5.70;;;;;;;;;;5019070;28;20041;-72
2022/10/17 04:41:51;;;;;;;6.20;5.90;;;;;;;;;;5019522;28;20520;-71
2022/10/17 04:44:17;;;;;;;6.40;6.10;;;;;;;;;;5015069;28;20448;-69
2022/10/17 04:46:48;;;;;;;6.10;5.80;;;;;;;;;;5018605;28;20045;-70
2022/10/17 04:49:13;;;;;;;5.60;5.38;;;;;;;;;;5026594;28;20083;-70
2022/10/17 04:51:42;;;;;;;6.63;6.33;;;;;;;;;;5022903;28;20046;-70
2022/10/17 04:54:16;;;;;;;6.47;6.18;;;;;;;;;;5024263;28;20288;-70
2022/10/17 04:56:46;;;;;;;6.00;5.70;;;;;;;;;;5020316;28;20038;-70
2022/10/17 04:59:11;;;;;;;6.38;6.07;;;;;;;;;;5019816;28;20087;-70
2022/10/17 05:01:40;;;;;;;6.00;5.70;;;;;;;;;;5019376;28;20068;-71
2022/10/17 05:04:05;;;;;;;6.47;6.18;;;;;;;;;;5016614;28;20068;-71
2022/10/17 05:06:32;;;;;;;5.90;5.60;;;;;;;;;;5007838;28;20490;-70
2022/10/17 05:09:32;;;;;;;6.10;5.80;;;;;;;;;;5019432;28;20034;-71
2022/10/17 05:11:58;;;;;;;6.63;6.22;;;;;;;;;;5020964;28;20088;-71
2022/10/17 05:14:24;;;;;;;5.93;5.63;;;;;;;;;;5020982;28;20038;-70
2022/10/17 05:16:50;;;;;;;6.00;5.70;;;;;;;;;;5023962;28;20027;-70
2022/10/17 05:19:17;;;;;;;6.03;5.72;;;;;;;;;;5018014;28;20103;-70
2022/10/17 05:21:45;;;;;;;6.60;6.30;;;;;;;;;;5013163;28;20037;-70
2022/10/17 05:24:13;;;;;;;6.00;5.70;;;;;;;;;;5021110;28;20033;-70
2022/10/17 05:26:39;;;;;;;6.70;6.40;;;;;;;;;;5016374;28;20045;-70
2022/10/17 05:29:05;;;;;;;6.57;6.28;;;;;;;;;;5019537;28;20144;-70
2022/10/17 05:31:34;;;;;;;5.90;5.60;;;;;;;;;;5017990;28;20116;-71
2022/10/17 05:34:01;;;;;;;6.05;5.75;;;;;;;;;;5025432;28;20116;-71
2022/10/17 05:36:28;;;;;;;6.20;5.90;;;;;;;;;;5020321;28;20037;-70
2022/10/17 05:38:54;;;;;;;6.82;6.43;;;;;;;;;;5022447;28;20065;-70
2022/10/17 05:41:20;;;;;;;6.50;6.20;;;;;;;;;;5019534;28;20045;-71
2022/10/17 05:43:46;;;;;;;5.97;5.68;;;;;;;;;;5021075;28;20052;-71
2022/10/17 05:46:18;;;;;;;6.30;6.00;;;;;;;;;;5022256;28;20545;-71
2022/10/17 05:48:44;;;;;;;6.53;6.22;;;;;;;;;;5022728;28;20037;-70
2022/10/17 05:51:10;;;;;;;6.22;5.93;;;;;;;;;;5017106;28;20026;-71
2022/10/17 05:53:38;;;;;;;6.28;5.97;;;;;;;;;;5020157;28;20045;-71
2022/10/17 05:56:09;;;;;;;6.07;5.78;;;;;;;;;;5025641;28;20033;-70
2022/10/17 05:58:38;;;;;;;6.18;5.88;;;;;;;;;;5018024;28;20099;-70
2022/10/17 06:01:05;;;;;;;;;;;;;;;;;;5022914;28;20100;-71
2022/10/17 06:03:32;;;;;;;5.95;5.65;;;;;;;;;;5025907;28;20424;-70
2022/10/17 06:06:06;;;;;;;5.75;5.45;;;;;;;;;;5023191;28;20033;-71
2022/10/17 06:08:32;;;;;;;6.00;5.70;;;;;;;;;;5020767;28;20038;-71
2022/10/17 06:10:59;;;;;;;6.00;5.70;;;;;;;;;;5021212;28;20524;-70
2022/10/17 06:13:25;;;;;;;6.00;5.70;;;;;;;;;;5019354;28;20113;-71
2022/10/17 06:15:52;;;;;;;5.82;5.53;;;;;;;;;;5020950;28;20033;-70
2022/10/17 06:18:17;;;;;;;5.75;5.47;;;;;;;;;;5022087;28;20516;-70
2022/10/17 06:20:43;;;;;;;6.40;6.10;;;;;;;;;;5024245;28;20429;-70
2022/10/17 06:23:09;;;;;;;6.10;5.80;;;;;;;;;;5025591;28;20041;-71
2022/10/17 06:25:47;;;;;;;6.28;5.88;;;;;;;;;;5022057;28;20044;-70
2022/10/17 06:28:13;;;;;;;6.40;6.10;;;;;;;;;;5022535;28;20356;-71
2022/10/17 06:30:40;;;;;;;6.00;5.70;;;;;;;;;;5021593;28;20044;-70
2022/10/17 06:33:06;;;;;;;6.05;5.75;;;;;;;;;;5022576;28;20053;-70
2022/10/17 06:35:31;;;;;;;5.95;5.65;;;;;;;;;;5020749;28;20037;-71
2022/10/17 06:37:57;;;;;;;5.53;5.32;;;;;;;;;;5025084;28;20382;-70
2022/10/17 06:40:25;;;;;;;5.93;5.63;;;;;;;;;;5019230;28;20056;-71
2022/10/17 06:42:50;;;;;;;6.20;5.90;;;;;;;;;;5002258;28;20124;-70
2022/10/17 06:45:45;;;;;;;6.18;5.88;;;;;;;;;;5004886;28;20047;-70
2022/10/17 06:48:28;;;;;;;6.28;5.97;;;;;;;;;;5017520;28;20045;-71
2022/10/17 06:51:14;;;;;;;5.80;5.50;;;;;;;;;;5022777;28;20048;-71
2022/10/17 06:53:53;;;;;;;5.50;5.28;;;;;;;;;;5018430;28;20041;-71
2022/10/17 06:56:29;;;;;;;5.43;5.22;;;;;;;;;;5017382;28;20037;-71
2022/10/17 06:59:08;;;;;;;5.40;5.20;;;;;;;;;;5022827;28;20045;-71
2022/10/17 07:01:35;;;;;;;5.70;5.40;;;;;;;;;;5020100;28;20065;-70
2022/10/17 07:04:03;;;;;;;5.40;5.20;;;;;;;;;;5020562;28;20030;-71
2022/10/17 07:06:30;;;;;;;5.93;5.63;;;;;;;;;;5016844;28;20033;-71
2022/10/17 07:09:01;;;;;;;5.93;5.63;;;;;;;;;;5017237;28;20037;-71
2022/10/17 07:11:27;;;;;;;5.97;5.68;;;;;;;;;;5018559;28;20029;-71
2022/10/17 07:13:53;;;;;;;6.07;5.78;;;;;;;;;;5021442;28;20456;-71
2022/10/17 07:16:20;;;;;;;6.50;6.20;;;;;;;;;;5021171;28;20048;-71
2022/10/17 07:18:51;;;;;;;6.10;5.80;;;;;;;;;;5022530;28;20085;-71
2022/10/17 07:21:17;;;;;;;5.80;5.50;;;;;;;;;;5020135;28;20034;-71
2022/10/17 07:23:43;;;;;;;6.38;6.07;;;;;;;;;;5020533;28;20041;-71
2022/10/17 07:26:12;;;;;;;6.30;6.00;;;;;;;;;;5021847;28;20751;-71
2022/10/17 07:28:40;;;;;;;5.60;5.35;;;;;;;;;;5018776;28;20033;-71
2022/10/17 07:31:20;;;;;;;6.63;6.32;;;;;;;;;;5018884;28;20029;-71
2022/10/17 07:33:45;;;;;;;5.90;5.60;;;;;;;;;;5019680;28;20064;-71
2022/10/17 07:36:12;;;;;;;5.97;5.68;;;;;;;;;;5016718;28;20485;-71
2022/10/17 07:38:38;;;;;;;5.50;5.30;;;;;;;;;;5016489;28;20045;-72
2022/10/17 07:41:06;;;;;;;5.90;5.60;;;;;;;;;;5019148;28;20409;-72
2022/10/17 07:43:32;;;;;;;6.00;5.70;;;;;;;;;;4999765;28;20055;-72
2022/10/17 07:46:00;;;;;;;5.95;5.65;;;;;;;;;;5034940;28;20155;-72
2022/10/17 07:48:26;;;;;;;5.88;5.57;;;;;;;;;;5006133;28;20481;-71
2022/10/17 07:50:53;;;;;;;5.95;5.65;;;;;;;;;;5021011;28;20315;-72
2022/10/17 07:53:19;;;;;;;5.97;5.68;;;;;;;;;;5021039;28;20402;-72
2022/10/17 07:55:46;;;;;;;5.90;5.60;;;;;;;;;;5019147;28;20056;-72
2022/10/17 07:58:12;;;;;;;6.07;5.78;;;;;;;;;;5018265;28;20033;-73
2022/10/17 08:00:38;;;;;;;5.90;5.60;;;;;;;;;;5021353;28;20056;-71
2022/10/17 08:03:05;;;;;;;6.13;5.82;;;;;;;;;;5016952;28;20288;-71
2022/10/17 08:05:32;;;;;;;5.70;5.43;;;;;;;;;;5021920;28;20064;-72
2022/10/17 08:07:57;;;;;;;5.65;5.38;;;;;;;;;;5023599;28;20041;-72
2022/10/17 08:10:26;;;;;;;5.80;5.50;;;;;;;;;;5019302;28;20034;-73
2022/10/17 08:12:53;;;;;;;5.57;5.38;;;;;;;;;;5020309;28;20489;-71
2022/10/17 08:15:18;;;;;;;5.70;5.40;;;;;;;;;;5019446;28;20071;-72
2022/10/17 08:17:44;;;;;;;6.30;6.00;;;;;;;;;;5022447;28;20405;-72
2022/10/17 08:20:10;;;;;;;5.40;5.20;;;;;;;;;;5020986;28;20052;-72
2022/10/17 08:22:35;;;;;;;5.80;5.50;;;;;;;;;;5020812;28;20120;-71
2022/10/17 08:25:01;;;;;;;5.82;5.53;;;;;;;;;;5026830;28;20569;-70
2022/10/17 08:27:27;;;;;;;5.93;5.63;;;;;;;;;;5027237;28;20232;-72
2022/10/17 08:29:53;;;;;;;5.93;5.63;;;;;;;;;;5024572;28;20041;-71
2022/10/17 08:32:21;;;;;;;6.13;5.82;;;;;;;;;;5029321;28;20110;-71
2022/10/17 08:34:47;;;;;;;5.78;5.47;;;;;;;;;;5029594;28;20021;-72
2022/10/17 08:37:13;;;;;;;5.82;5.53;;;;;;;;;;5022462;28;20398;-71
2022/10/17 08:39:40;;;;;;;5.60;5.40;;;;;;;;;;5020675;28;20034;-72
2022/10/17 08:42:12;;;;;;;5.85;5.55;;;;;;;;;;5025963;28;20044;-71
2022/10/17 08:44:56;;;;;;;5.93;5.63;;;;;;;;;;5017361;28;20060;-72
2022/10/17 08:47:36;;;;;;;5.60;5.30;;;;;;;;;;5027352;28;20389;-72
2022/10/17 08:50:06;;;;;;;6.10;5.80;;;;;;;;;;5027905;28;20033;-72
2022/10/17 08:52:43;;;;;;;5.82;5.53;;;;;;;;;;5022361;28;20101;-72
2022/10/17 08:55:36;;;;;;;5.75;5.45;;;;;;;;;;5022628;28;20065;-72
2022/10/17 08:58:04;;;;;;;5.80;5.50;;;;;;;;;;5024237;28;20034;-71
2022/10/17 09:00:31;;;;;;;5.88;5.57;;;;;;;;;;5019014;28;20029;-72
2022/10/17 09:03:16;;;;;;;6.28;5.97;;;;;;;;;;5022561;28;20116;-71
2022/10/17 09:05:51;;;;;;;6.20;5.90;;;;;;;;;;5025733;28;20564;-71
2022/10/17 09:08:44;;;;;;;6.28;5.97;;;;;;;;;;5022191;28;20033;-71
2022/10/17 09:11:10;;;;;;;6.35;6.05;;;;;;;;;;5023017;28;20259;-72
2022/10/17 09:13:50;;;;;;;5.70;5.43;;;;;;;;;;5024879;28;20151;-72
2022/10/17 09:16:37;;;;;;;5.50;5.30;;;;;;;;;;5020579;28;20068;-72
2022/10/17 09:19:19;;;;;;;5.80;5.50;;;;;;;;;;5025613;28;20082;-74
2022/10/17 09:21:52;;;;;;;5.90;5.60;;;;;;;;;;5019050;28;20036;-72
2022/10/17 09:24:34;;;;;;;6.10;5.80;;;;;;;;;;5024047;28;20037;-73
2022/10/17 09:27:01;;;;;;;6.00;5.70;;;;;;;;;;5021635;28;20507;-73
2022/10/17 09:29:28;;;;;;;6.32;6.03;;;;;;;;;;5022274;28;20025;-72
2022/10/17 09:32:12;;;;;;;6.10;5.80;;;;;;;;;;5018620;28;20041;-72
2022/10/17 09:34:38;;;;;;;5.80;5.50;;;;;;;;;;5019934;28;20044;-72
2022/10/17 09:37:11;;;;;;;5.80;5.50;;;;;;;;;;5016200;28;20034;-72
2022/10/17 09:39:37;;;;;;;5.93;5.63;;;;;;;;;;5021120;28;20048;-73
2022/10/17 09:42:02;;;;;;;5.50;5.30;;;;;;;;;;5019921;28;20040;-72
2022/10/17 09:44:34;;;;;;;5.50;5.30;;;;;;;;;;5023146;28;20036;-73
2022/10/17 09:47:02;;;;;;;5.68;5.40;;;;;;;;;;5022834;28;20049;-73
2022/10/17 09:49:32;;;;;;;5.20;5.00;;;;;;;;;;5019233;28;20108;-73
2022/10/17 09:52:00;;;;;;;5.93;5.63;;;;;;;;;;5022825;28;20512;-72
2022/10/17 09:54:55;;;;;;;5.80;5.50;;;;;;;;;;5019206;28;20040;-72
2022/10/17 09:57:21;;;;;;;5.25;5.05;;;;;;;;;;4936565;29;20039;-72
2022/10/17 09:59:59;;;;;;;5.90;5.60;;;;;;;;;;4921698;29;20663;-72
2022/10/17 10:02:26;;;;;;;5.95;5.65;;;;;;;;;;4922931;29;20066;-72
2022/10/17 10:04:58;;;;;;;5.65;5.40;;;;;;;;;;4929541;29;20517;-73
2022/10/17 10:07:26;;;;;;;5.97;5.68;;;;;;;;;;4924845;29;20036;-73
2022/10/17 10:09:52;;;;;;;5.60;5.40;;;;;;;;;;4922821;29;20091;-72
2022/10/17 10:12:23;;;;;;;5.82;5.53;;;;;;;;;;4924366;29;20692;-72
2022/10/17 10:14:49;;;;;;;5.20;5.00;;;;;;;;;;4929051;29;20106;-72
2022/10/17 10:17:33;;;;;;;5.40;5.20;;;;;;;;;;4927557;29;20467;-73
2022/10/17 10:19:59;;;;;;;5.10;4.90;;;;;;;;;;4920763;29;20511;-72
2022/10/17 10:22:25;;;;;;;5.95;5.65;;;;;;;;;;4928711;29;20052;-72
2022/10/17 10:25:09;;;;;;;6.28;5.80;;;;;;;;;;4929203;29;20044;-72
2022/10/17 10:27:35;;;;;;;5.00;4.80;;;;;;;;;;4924152;29;20048;-72
2022/10/17 10:30:03;;;;;;;5.82;5.53;;;;;;;;;;4924904;29;20032;-72
2022/10/17 10:32:32;;;;;;;5.40;5.20;;;;;;;;;;4925776;29;20071;-73
2022/10/17 10:35:19;;;;;;;5.50;5.30;;;;;;;;;;5004807;28;20052;-72
2022/10/17 10:37:49;;;;;;;5.63;5.32;;;;;;;;;;5020732;28;20256;-72
2022/10/17 10:40:18;;;;;;;5.60;5.38;;;;;;;;;;5022081;28;20315;-72
2022/10/17 10:42:48;;;;;;;5.40;5.20;;;;;;;;;;5025398;28;20672;-72
2022/10/17 10:45:25;;;;;;;6.43;6.03;;;;;;;;;;5020795;28;20030;-72
2022/10/17 10:47:55;;;;;;;5.80;5.50;;;;;;;;;;5018315;28;20464;-72
2022/10/17 10:50:39;;;;;;;5.45;5.25;;;;;;;;;;5017200;28;20029;-72
2022/10/17 10:53:04;;;;;;;5.40;5.20;;;;;;;;;;5020040;28;20140;-72
2022/10/17 10:55:39;;;;;;;5.30;5.10;;;;;;;;;;5019581;28;20029;-72
2022/10/17 10:58:20;;;;;;;5.50;5.30;;;;;;;;;;5016277;28;20258;-72
2022/10/17 11:00:48;;;;;;;5.72;5.43;;;;;;;;;;5021958;28;20041;-72
2022/10/17 11:03:17;;;;;;;5.30;5.10;;;;;;;;;;5018187;28;20040;-72
2022/10/17 11:05:56;;;;;;;5.10;4.90;;;;;;;;;;5024995;28;20099;-72
2022/10/17 11:08:32;;;;;;;5.20;5.00;;;;;;;;;;5021999;28;20033;-72
2022/10/17 11:11:22;;;;;;;5.00;4.80;;;;;;;;;;5017164;28;20382;-72
2022/10/17 11:14:02;;;;;;;5.57;5.38;;;;;;;;;;5022630;28;20167;-72
2022/10/17 11:16:36;;;;;;;5.40;5.20;;;;;;;;;;5017092;28;20033;-72
2022/10/17 11:19:19;;;;;;;6.22;5.65;;;;;;;;;;5024737;28;20481;-72
2022/10/17 11:22:08;;;;;;;5.50;5.30;;;;;;;;;;5018343;28;20042;-72
2022/10/17 11:24:43;;;;;;;5.80;5.50;;;;;;;;;;5014814;28;20125;-72
2022/10/17 11:27:09;;;;;;;5.47;5.28;;;;;;;;;;5020744;28;20056;-72
2022/10/17 11:29:38;;;;;;;5.43;5.22;;;;;;;;;;5020429;28;20070;-72
2022/10/17 11:32:25;;;;;;;5.72;5.45;;;;;;;;;;5023210;28;20500;-72
2022/10/17 11:34:56;;;;;;;5.40;5.20;;;;;;;;;;5021299;28;20258;-72
2022/10/17 11:37:26;;;;;;;5.30;5.10;;;;;;;;;;5021894;28;20033;-72
2022/10/17 11:40:02;;;;;;;6.13;5.82;;;;;;;;;;5020238;28;20107;-72
2022/10/17 11:42:51;;;;;;;6.13;5.82;;;;;;;;;;5022142;28;20034;-72
2022/10/17 11:45:21;;;;;;;5.85;5.55;;;;;;;;;;5018774;28;20037;-72
2022/10/17 11:47:50;;;;;;;5.95;5.65;;;;;;;;;;5025352;28;20048;-72
2022/10/17 11:50:33;;;;;;;5.82;5.53;;;;;;;;;;5023393;28;20114;-72
2022/10/17 11:53:20;;;;;;;5.70;5.40;;;;;;;;;;5018063;28;20039;-71
2022/10/17 11:55:46;;;;;;;6.00;5.70;;;;;;;;;;5022360;28;20099;-72
2022/10/17 11:58:30;;;;;;;5.50;5.30;;;;;;;;;;5016473;28;20068;-72
2022/10/17 12:01:14;;;;;;;6.03;5.72;;;;;;;;;;5024045;28;20524;-71
2022/10/17 12:04:14;;;;;;;6.68;6.38;;;;;;;;;;5015877;28;20125;-72
2022/10/17 12:07:08;;;;;;;5.90;5.60;;;;;;;;;;5022680;28;20083;-72
2022/10/17 12:09:52;;;;;;;6.03;5.72;;;;;;;;;;5021897;28;20037;-72
2022/10/17 12:12:29;;;;;;;6.10;5.80;;;;;;;;;;5021202;28;20520;-72
2022/10/17 12:15:25;;;;;;;6.20;5.90;;;;;;;;;;5020721;28;20029;-72
2022/10/17 12:18:16;;;;;;;6.05;5.75;;;;;;;;;;5003700;28;20050;-72
2022/10/17 12:20:42;;;;;;;6.00;5.70;;;;;;;;;;5019163;28;20535;-71
2022/10/17 12:23:10;;;;;;;6.10;5.80;;;;;;;;;;5019507;28;20041;-72
2022/10/17 12:26:12;;;;;;;5.88;5.57;;;;;;;;;;5019881;28;20448;-72
2022/10/17 12:28:43;;;;;;;5.65;5.38;;;;;;;;;;4941937;29;20152;-72
2022/10/17 12:31:29;;;;;;;5.38;5.18;;;;;;;;;;4941539;29;20071;-72
2022/10/17 12:33:57;;;;;;;5.82;5.53;;;;;;;;;;4940797;28;20543;-72
2022/10/17 12:36:25;;;;;;;6.00;5.70;;;;;;;;;;4937872;29;20050;-72
2022/10/17 12:39:00;;;;;;;6.22;5.93;;;;;;;;;;4940541;29;20047;-72
2022/10/17 12:41:37;;;;;;;6.10;5.80;;;;;;;;;;4938202;28;20543;-72
2022/10/17 12:44:12;;;;;;;5.82;5.53;;;;;;;;;;4938857;29;20583;-72
2022/10/17 12:46:50;;;;;;;6.20;5.90;;;;;;;;;;4941436;28;20044;-71
2022/10/17 12:49:44;;;;;;;6.50;6.20;;;;;;;;;;4936485;28;20051;-72
2022/10/17 12:52:09;;;;;;;6.47;6.18;;;;;;;;;;4937919;29;20047;-71
2022/10/17 12:54:40;;;;;;;6.40;6.10;;;;;;;;;;4938831;29;20419;-72
2022/10/17 12:58:06;;;;;;;6.25;5.95;;;;;;;;;;4939259;28;20078;-72
2022/10/17 13:00:54;;;;;;;6.32;6.03;;;;;;;;;;4867206;29;20075;-72
2022/10/17 13:03:23;;;;;;;6.25;5.95;;;;;;;;;;4924381;29;20419;-71
2022/10/17 13:05:59;;;;;;;6.00;5.70;;;;;;;;;;4943291;29;20055;-71
2022/10/17 13:08:30;;;;;;;6.30;6.00;;;;;;;;;;4942244;29;20245;-72
2022/10/17 13:10:56;;;;;;;6.53;6.22;;;;;;;;;;4940484;28;20051;-72
2022/10/17 13:13:34;;;;;;;6.22;5.93;;;;;;;;;;4945207;29;20110;-71
2022/10/17 13:15:59;;;;;;;6.03;5.72;;;;;;;;;;4948148;29;20105;-72
2022/10/17 13:18:27;;;;;;;6.07;5.78;;;;;;;;;;4947945;29;20102;-72
2022/10/17 13:20:59;;;;;;;6.00;5.70;;;;;;;;;;4944544;28;20043;-72
2022/10/17 13:23:28;;;;;;;6.13;5.82;;;;;;;;;;4945203;28;20081;-71
2022/10/17 13:26:14;;;;;;;5.90;5.60;;;;;;;;;;4947064;29;20039;-72
2022/10/17 13:28:40;;;;;;;6.68;6.38;;;;;;;;;;4946419;29;20036;-72
2022/10/17 13:31:07;;;;;;;5.50;5.30;;;;;;;;;;4987590;28;20417;-71
2022/10/17 13:33:34;;;;;;;5.72;5.45;;;;;;;;;;5023601;28;20033;-72
2022/10/17 13:36:02;;;;;;;5.50;5.30;;;;;;;;;;5024416;28;20053;-72
2022/10/17 13:38:31;;;;;;;5.47;5.28;;;;;;;;;;5022298;28;20146;-72
2022/10/17 13:40:58;;;;;;;5.50;5.30;;;;;;;;;;5022503;28;20154;-72
2022/10/17 13:43:24;;;;;;;6.05;5.75;;;;;;;;;;5024276;28;20029;-72
2022/10/17 13:45:55;;;;;;;5.50;5.30;;;;;;;;;;5023214;28;20504;-72
2022/10/17 13:48:29;;;;;;;5.20;5.00;;;;;;;;;;5022844;28;20038;-72
2022/10/17 13:50:57;;;;;;;5.10;4.90;;;;;;;;;;5019508;28;20026;-72
2022/10/17 13:53:30;;;;;;;5.25;5.05;;;;;;;;;;5021251;28;20045;-72
2022/10/17 13:56:05;;;;;;;5.50;5.30;;;;;;;;;;5014538;28;20056;-72
2022/10/17 13:58:43;;;;;;;6.57;5.40;;;;;;;;;;5023033;28;21189;-71
2022/10/17 14:01:09;;;;;;;5.70;5.40;;;;;;;;;;5023258;28;20041;-72
2022/10/17 14:03:38;;;;;;;6.07;5.78;;;;;;;;;;5022897;28;20037;-72
2022/10/17 14:06:11;;;;;;;5.70;5.40;;;;;;;;;;5021375;28;20052;-72
2022/10/17 14:08:38;;;;;;;5.75;5.45;;;;;;;;;;5023753;28;20041;-71
2022/10/17 14:11:21;;;;;;;5.80;5.50;;;;;;;;;;5015525;28;20111;-71
2022/10/17 14:13:52;;;;;;;5.88;5.57;;;;;;;;;;5018633;28;20044;-71
2022/10/17 14:16:18;;;;;;;6.07;5.78;;;;;;;;;;5025394;28;20080;-72
2022/10/17 14:18:48;;;;;;;5.80;5.50;;;;;;;;;;5024628;28;20041;-71
2022/10/17 14:21:22;;;;;;;5.50;5.30;;;;;;;;;;5017967;28;20386;-71
2022/10/17 14:23:48;;;;;;;5.63;5.38;;;;;;;;;;5021323;28;20179;-72
2022/10/17 14:26:20;;;;;;;5.57;5.35;;;;;;;;;;5023203;28;20044;-72
2022/10/17 14:29:01;;;;;;;5.85;5.55;;;;;;;;;;5026950;28;20065;-71
2022/10/17 14:31:33;;;;;;;5.75;5.45;;;;;;;;;;5016937;28;20477;-71
2022/10/17 14:34:00;;;;;;;5.50;5.30;;;;;;;;;;5022136;28;20045;-71
2022/10/17 14:36:34;;;;;;;5.50;5.30;;;;;;;;;;5023728;28;20033;-72
2022/10/17 14:39:00;;;;;;;5.80;5.50;;;;;;;;;;5019421;28;20065;-71
2022/10/17 14:41:30;;;;;;;6.47;6.13;;;;;;;;;;5023569;28;20145;-71
2022/10/17 14:44:02;;;;;;;5.50;5.30;;;;;;;;;;5020363;28;20425;-71
2022/10/17 14:46:28;;;;;;;5.72;5.43;;;;;;;;;;5021619;28;20071;-72
2022/10/17 14:48:57;;;;;;;5.70;5.40;;;;;;;;;;5020525;28;20087;-71
2022/10/17 14:51:23;;;;;;;6.20;5.90;;;;;;;;;;5023277;28;20540;-71
2022/10/17 14:54:26;;;;;;;5.90;5.60;;;;;;;;;;5026924;28;20033;-71
2022/10/17 14:56:53;;;;;;;5.30;5.10;;;;;;;;;;5032249;23;20132;-69
2022/10/17 14:59:22;;;;;;;5.65;5.40;;;;;;;;;;5023901;28;20026;-68
2022/10/17 15:01:49;;;;;;;5.93;5.63;;;;;;;;;;5028135;28;20041;-67
2022/10/17 15:04:15;;;;;;;5.85;5.55;;;;;;;;;;5023620;28;20103;-70
2022/10/17 15:06:41;;;;;;;5.80;5.50;;;;;;;;;;5025451;28;20049;-68
2022/10/17 15:09:09;;;;;;;5.45;5.25;;;;;;;;;;5028061;28;20415;-68
2022/10/17 15:11:35;;;;;;;5.15;4.95;;;;;;;;;;5030878;28;20037;-68